sensor_id;sensor_type;location;lat;lon;timestamp;P1;durP1;ratioP1;P2;durP2;ratioP2
23800;SDS011;12081;48.614;10.226;2022-12-07T00:01:34;9.77;;;7.53;;
23800;SDS011;12081;48.614;10.226;2022-12-07T00:04:21;8.97;;;7.40;;
23800;SDS011;12081;48.614;10.226;2022-12-07T00:07:06;9.83;;;7.90;;
23800;SDS011;12081;48.614;10.226;2022-12-07T00:09:50;9.87;;;7.97;;
23800;SDS011;12081;48.614;10.226;2022-12-07T00:12:35;9.20;;;7.40;;
23800;SDS011;12081;48.614;10.226;2022-12-07T00:15:20;9.13;;;8.00;;
23800;SDS011;12081;48.614;10.226;2022-12-07T00:21:45;9.30;;;7.63;;
23800;SDS011;12081;48.614;10.226;2022-12-07T00:24:30;9.73;;;7.67;;
23800;SDS011;12081;48.614;10.226;2022-12-07T00:27:14;9.87;;;7.90;;
23800;SDS011;12081;48.614;10.226;2022-12-07T00:29:58;9.97;;;7.70;;
23800;SDS011;12081;48.614;10.226;2022-12-07T00:32:43;9.10;;;7.70;;
23800;SDS011;12081;48.614;10.226;2022-12-07T00:35:27;9.30;;;8.10;;
23800;SDS011;12081;48.614;10.226;2022-12-07T00:38:12;9.80;;;7.63;;
23800;SDS011;12081;48.614;10.226;2022-12-07T00:40:57;10.37;;;8.23;;
23800;SDS011;12081;48.614;10.226;2022-12-07T00:43:43;9.30;;;7.53;;
23800;SDS011;12081;48.614;10.226;2022-12-07T00:46:29;9.70;;;7.97;;
23800;SDS011;12081;48.614;10.226;2022-12-07T00:49:14;8.77;;;7.70;;
23800;SDS011;12081;48.614;10.226;2022-12-07T00:51:58;10.67;;;8.47;;
23800;SDS011;12081;48.614;10.226;2022-12-07T00:54:43;8.40;;;7.37;;
23800;SDS011;12081;48.614;10.226;2022-12-07T00:57:28;9.73;;;8.37;;
23800;SDS011;12081;48.614;10.226;2022-12-07T01:00:14;9.73;;;7.90;;
23800;SDS011;12081;48.614;10.226;2022-12-07T01:02:59;9.90;;;8.30;;
23800;SDS011;12081;48.614;10.226;2022-12-07T01:05:51;9.00;;;7.60;;
23800;SDS011;12081;48.614;10.226;2022-12-07T01:08:36;8.90;;;7.70;;
23800;SDS011;12081;48.614;10.226;2022-12-07T01:11:22;10.03;;;8.50;;
23800;SDS011;12081;48.614;10.226;2022-12-07T01:14:08;10.80;;;8.07;;
23800;SDS011;12081;48.614;10.226;2022-12-07T01:16:52;10.83;;;8.67;;
23800;SDS011;12081;48.614;10.226;2022-12-07T01:19:37;10.77;;;8.90;;
23800;SDS011;12081;48.614;10.226;2022-12-07T01:22:21;10.43;;;8.20;;
23800;SDS011;12081;48.614;10.226;2022-12-07T01:25:06;10.10;;;8.63;;
23800;SDS011;12081;48.614;10.226;2022-12-07T01:27:52;10.97;;;8.87;;
23800;SDS011;12081;48.614;10.226;2022-12-07T01:30:37;11.53;;;9.00;;
23800;SDS011;12081;48.614;10.226;2022-12-07T01:33:21;14.03;;;9.53;;
23800;SDS011;12081;48.614;10.226;2022-12-07T01:36:22;13.20;;;9.33;;
23800;SDS011;12081;48.614;10.226;2022-12-07T01:39:10;12.37;;;9.53;;
23800;SDS011;12081;48.614;10.226;2022-12-07T01:41:55;12.77;;;10.20;;
23800;SDS011;12081;48.614;10.226;2022-12-07T01:47:58;12.50;;;9.67;;
23800;SDS011;12081;48.614;10.226;2022-12-07T01:50:43;12.27;;;9.07;;
23800;SDS011;12081;48.614;10.226;2022-12-07T01:53:30;11.50;;;9.27;;
23800;SDS011;12081;48.614;10.226;2022-12-07T01:56:19;12.73;;;9.63;;
23800;SDS011;12081;48.614;10.226;2022-12-07T01:59:08;14.70;;;10.33;;
23800;SDS011;12081;48.614;10.226;2022-12-07T02:01:53;10.90;;;9.20;;
23800;SDS011;12081;48.614;10.226;2022-12-07T02:04:39;15.73;;;10.53;;
23800;SDS011;12081;48.614;10.226;2022-12-07T02:07:23;14.30;;;10.10;;
23800;SDS011;12081;48.614;10.226;2022-12-07T02:13:06;14.57;;;10.90;;
23800;SDS011;12081;48.614;10.226;2022-12-07T02:15:59;16.07;;;10.70;;
23800;SDS011;12081;48.614;10.226;2022-12-07T02:21:59;14.13;;;10.73;;
23800;SDS011;12081;48.614;10.226;2022-12-07T02:28:19;13.43;;;10.10;;
23800;SDS011;12081;48.614;10.226;2022-12-07T02:31:14;13.80;;;10.23;;
23800;SDS011;12081;48.614;10.226;2022-12-07T02:35:06;14.07;;;11.10;;
23800;SDS011;12081;48.614;10.226;2022-12-07T02:37:31;14.37;;;11.03;;
23800;SDS011;12081;48.614;10.226;2022-12-07T02:40:40;13.17;;;10.33;;
23800;SDS011;12081;48.614;10.226;2022-12-07T02:43:58;14.40;;;11.27;;
23800;SDS011;12081;48.614;10.226;2022-12-07T02:46:51;13.07;;;10.37;;
23800;SDS011;12081;48.614;10.226;2022-12-07T02:49:42;17.27;;;10.57;;
23800;SDS011;12081;48.614;10.226;2022-12-07T02:52:27;11.17;;;8.90;;
23800;SDS011;12081;48.614;10.226;2022-12-07T02:55:12;14.33;;;10.47;;
23800;SDS011;12081;48.614;10.226;2022-12-07T02:58:06;18.80;;;11.77;;
23800;SDS011;12081;48.614;10.226;2022-12-07T03:03:54;15.30;;;11.13;;
23800;SDS011;12081;48.614;10.226;2022-12-07T03:06:52;16.13;;;11.07;;
23800;SDS011;12081;48.614;10.226;2022-12-07T03:12:51;10.73;;;8.33;;
23800;SDS011;12081;48.614;10.226;2022-12-07T03:16:02;9.10;;;7.30;;
23800;SDS011;12081;48.614;10.226;2022-12-07T03:19:29;10.70;;;7.17;;
23800;SDS011;12081;48.614;10.226;2022-12-07T03:22:10;8.53;;;6.60;;
23800;SDS011;12081;48.614;10.226;2022-12-07T03:24:57;8.20;;;6.43;;
23800;SDS011;12081;48.614;10.226;2022-12-07T03:27:54;9.70;;;6.97;;
23800;SDS011;12081;48.614;10.226;2022-12-07T03:30:43;8.47;;;6.57;;
23800;SDS011;12081;48.614;10.226;2022-12-07T03:33:35;9.37;;;6.77;;
23800;SDS011;12081;48.614;10.226;2022-12-07T03:36:29;10.40;;;7.63;;
23800;SDS011;12081;48.614;10.226;2022-12-07T03:39:22;11.43;;;7.50;;
23800;SDS011;12081;48.614;10.226;2022-12-07T03:42:14;9.00;;;7.03;;
23800;SDS011;12081;48.614;10.226;2022-12-07T03:45:01;9.87;;;7.33;;
23800;SDS011;12081;48.614;10.226;2022-12-07T03:48:00;8.57;;;7.13;;
23800;SDS011;12081;48.614;10.226;2022-12-07T03:51:36;10.40;;;7.77;;
23800;SDS011;12081;48.614;10.226;2022-12-07T03:56:59;10.40;;;8.07;;
23800;SDS011;12081;48.614;10.226;2022-12-07T03:59:46;12.43;;;8.43;;
23800;SDS011;12081;48.614;10.226;2022-12-07T04:02:31;10.97;;;8.10;;
23800;SDS011;12081;48.614;10.226;2022-12-07T04:05:16;12.23;;;9.53;;
23800;SDS011;12081;48.614;10.226;2022-12-07T04:08:00;11.53;;;9.00;;
23800;SDS011;12081;48.614;10.226;2022-12-07T04:10:44;12.00;;;9.23;;
23800;SDS011;12081;48.614;10.226;2022-12-07T04:13:28;11.33;;;8.83;;
23800;SDS011;12081;48.614;10.226;2022-12-07T04:16:12;10.63;;;8.40;;
23800;SDS011;12081;48.614;10.226;2022-12-07T04:18:56;12.00;;;9.37;;
23800;SDS011;12081;48.614;10.226;2022-12-07T04:21:40;14.33;;;9.93;;
23800;SDS011;12081;48.614;10.226;2022-12-07T04:24:25;13.90;;;10.77;;
23800;SDS011;12081;48.614;10.226;2022-12-07T04:27:10;12.90;;;9.57;;
23800;SDS011;12081;48.614;10.226;2022-12-07T04:29:54;13.33;;;9.40;;
23800;SDS011;12081;48.614;10.226;2022-12-07T04:32:39;12.50;;;9.17;;
23800;SDS011;12081;48.614;10.226;2022-12-07T04:35:23;14.30;;;9.53;;
23800;SDS011;12081;48.614;10.226;2022-12-07T04:38:07;12.53;;;9.23;;
23800;SDS011;12081;48.614;10.226;2022-12-07T04:40:51;14.50;;;11.07;;
23800;SDS011;12081;48.614;10.226;2022-12-07T04:43:35;10.90;;;8.60;;
23800;SDS011;12081;48.614;10.226;2022-12-07T04:46:19;11.53;;;8.23;;
23800;SDS011;12081;48.614;10.226;2022-12-07T04:49:04;10.80;;;8.13;;
23800;SDS011;12081;48.614;10.226;2022-12-07T04:51:48;10.80;;;7.90;;
23800;SDS011;12081;48.614;10.226;2022-12-07T04:54:32;11.50;;;7.83;;
23800;SDS011;12081;48.614;10.226;2022-12-07T04:57:16;12.33;;;9.33;;
23800;SDS011;12081;48.614;10.226;2022-12-07T05:00:00;13.87;;;8.73;;
23800;SDS011;12081;48.614;10.226;2022-12-07T05:02:44;11.60;;;8.77;;
23800;SDS011;12081;48.614;10.226;2022-12-07T05:05:28;11.37;;;8.60;;
23800;SDS011;12081;48.614;10.226;2022-12-07T05:08:12;12.30;;;9.40;;
23800;SDS011;12081;48.614;10.226;2022-12-07T05:10:56;10.80;;;8.40;;
23800;SDS011;12081;48.614;10.226;2022-12-07T05:13:40;12.03;;;9.37;;
23800;SDS011;12081;48.614;10.226;2022-12-07T05:19:38;14.63;;;10.67;;
23800;SDS011;12081;48.614;10.226;2022-12-07T05:22:22;14.57;;;10.53;;
23800;SDS011;12081;48.614;10.226;2022-12-07T05:25:06;13.17;;;10.10;;
23800;SDS011;12081;48.614;10.226;2022-12-07T05:27:50;13.50;;;9.73;;
23800;SDS011;12081;48.614;10.226;2022-12-07T05:30:34;15.70;;;10.03;;
23800;SDS011;12081;48.614;10.226;2022-12-07T05:33:18;15.20;;;10.20;;
23800;SDS011;12081;48.614;10.226;2022-12-07T05:36:03;14.60;;;10.67;;
23800;SDS011;12081;48.614;10.226;2022-12-07T05:38:49;14.03;;;11.10;;
23800;SDS011;12081;48.614;10.226;2022-12-07T05:41:34;13.37;;;10.57;;
23800;SDS011;12081;48.614;10.226;2022-12-07T05:44:37;16.20;;;11.00;;
23800;SDS011;12081;48.614;10.226;2022-12-07T05:47:22;14.50;;;10.80;;
23800;SDS011;12081;48.614;10.226;2022-12-07T05:50:06;15.70;;;12.10;;
23800;SDS011;12081;48.614;10.226;2022-12-07T05:52:50;17.27;;;11.03;;
23800;SDS011;12081;48.614;10.226;2022-12-07T05:55:34;14.50;;;11.07;;
23800;SDS011;12081;48.614;10.226;2022-12-07T05:58:18;19.33;;;11.07;;
23800;SDS011;12081;48.614;10.226;2022-12-07T06:01:21;19.73;;;13.53;;
23800;SDS011;12081;48.614;10.226;2022-12-07T06:04:05;21.87;;;14.20;;
23800;SDS011;12081;48.614;10.226;2022-12-07T06:06:49;24.87;;;16.20;;
23800;SDS011;12081;48.614;10.226;2022-12-07T06:09:34;31.70;;;20.93;;
23800;SDS011;12081;48.614;10.226;2022-12-07T06:12:19;25.13;;;16.90;;
23800;SDS011;12081;48.614;10.226;2022-12-07T06:15:18;22.93;;;15.40;;
23800;SDS011;12081;48.614;10.226;2022-12-07T06:18:03;20.03;;;13.63;;
23800;SDS011;12081;48.614;10.226;2022-12-07T06:20:47;21.03;;;15.37;;
23800;SDS011;12081;48.614;10.226;2022-12-07T06:23:31;25.37;;;15.27;;
23800;SDS011;12081;48.614;10.226;2022-12-07T06:26:15;25.07;;;15.87;;
23800;SDS011;12081;48.614;10.226;2022-12-07T06:28:59;23.10;;;15.33;;
23800;SDS011;12081;48.614;10.226;2022-12-07T06:34:32;17.47;;;12.50;;
23800;SDS011;12081;48.614;10.226;2022-12-07T06:37:16;19.83;;;13.17;;
23800;SDS011;12081;48.614;10.226;2022-12-07T06:40:00;19.87;;;13.40;;
23800;SDS011;12081;48.614;10.226;2022-12-07T06:42:45;20.30;;;13.60;;
23800;SDS011;12081;48.614;10.226;2022-12-07T06:45:29;19.77;;;13.53;;
23800;SDS011;12081;48.614;10.226;2022-12-07T06:48:13;21.23;;;13.50;;
23800;SDS011;12081;48.614;10.226;2022-12-07T06:50:57;20.13;;;13.63;;
23800;SDS011;12081;48.614;10.226;2022-12-07T06:53:41;18.57;;;13.13;;
23800;SDS011;12081;48.614;10.226;2022-12-07T06:56:25;18.67;;;13.13;;
23800;SDS011;12081;48.614;10.226;2022-12-07T06:59:09;17.60;;;12.27;;
23800;SDS011;12081;48.614;10.226;2022-12-07T07:01:54;15.17;;;11.73;;
23800;SDS011;12081;48.614;10.226;2022-12-07T07:04:38;18.63;;;12.67;;
23800;SDS011;12081;48.614;10.226;2022-12-07T07:07:22;20.03;;;12.90;;
23800;SDS011;12081;48.614;10.226;2022-12-07T07:10:06;21.47;;;13.43;;
23800;SDS011;12081;48.614;10.226;2022-12-07T07:12:51;17.50;;;11.77;;
23800;SDS011;12081;48.614;10.226;2022-12-07T07:15:37;16.90;;;12.07;;
23800;SDS011;12081;48.614;10.226;2022-12-07T07:18:21;16.30;;;11.07;;
23800;SDS011;12081;48.614;10.226;2022-12-07T07:21:05;16.50;;;11.60;;
23800;SDS011;12081;48.614;10.226;2022-12-07T07:23:49;14.40;;;10.10;;
23800;SDS011;12081;48.614;10.226;2022-12-07T07:26:33;19.00;;;11.63;;
23800;SDS011;12081;48.614;10.226;2022-12-07T07:29:17;14.90;;;10.57;;
23800;SDS011;12081;48.614;10.226;2022-12-07T07:32:01;14.70;;;9.77;;
23800;SDS011;12081;48.614;10.226;2022-12-07T07:34:45;14.27;;;9.37;;
23800;SDS011;12081;48.614;10.226;2022-12-07T07:37:29;14.77;;;9.60;;
23800;SDS011;12081;48.614;10.226;2022-12-07T07:40:13;12.47;;;9.23;;
23800;SDS011;12081;48.614;10.226;2022-12-07T07:42:57;15.23;;;10.20;;
23800;SDS011;12081;48.614;10.226;2022-12-07T07:45:42;15.87;;;10.27;;
23800;SDS011;12081;48.614;10.226;2022-12-07T07:48:27;12.17;;;8.33;;
23800;SDS011;12081;48.614;10.226;2022-12-07T07:51:11;11.97;;;8.20;;
23800;SDS011;12081;48.614;10.226;2022-12-07T07:53:55;11.37;;;8.23;;
23800;SDS011;12081;48.614;10.226;2022-12-07T07:56:39;12.53;;;7.93;;
23800;SDS011;12081;48.614;10.226;2022-12-07T07:59:23;10.83;;;7.53;;
23800;SDS011;12081;48.614;10.226;2022-12-07T08:02:12;11.97;;;7.63;;
23800;SDS011;12081;48.614;10.226;2022-12-07T08:04:59;14.07;;;8.57;;
23800;SDS011;12081;48.614;10.226;2022-12-07T08:07:43;12.33;;;7.70;;
23800;SDS011;12081;48.614;10.226;2022-12-07T08:10:27;12.87;;;8.87;;
23800;SDS011;12081;48.614;10.226;2022-12-07T08:13:11;10.37;;;7.90;;
23800;SDS011;12081;48.614;10.226;2022-12-07T08:15:57;12.67;;;8.37;;
23800;SDS011;12081;48.614;10.226;2022-12-07T08:18:42;12.63;;;7.87;;
23800;SDS011;12081;48.614;10.226;2022-12-07T08:21:26;9.93;;;7.60;;
23800;SDS011;12081;48.614;10.226;2022-12-07T08:24:10;10.77;;;7.00;;
23800;SDS011;12081;48.614;10.226;2022-12-07T08:26:55;10.20;;;6.63;;
23800;SDS011;12081;48.614;10.226;2022-12-07T08:29:39;9.53;;;6.80;;
23800;SDS011;12081;48.614;10.226;2022-12-07T08:32:23;9.53;;;6.30;;
23800;SDS011;12081;48.614;10.226;2022-12-07T08:35:07;10.57;;;6.93;;
23800;SDS011;12081;48.614;10.226;2022-12-07T08:37:51;10.77;;;7.17;;
23800;SDS011;12081;48.614;10.226;2022-12-07T08:40:36;8.60;;;6.37;;
23800;SDS011;12081;48.614;10.226;2022-12-07T08:43:19;8.57;;;6.20;;
23800;SDS011;12081;48.614;10.226;2022-12-07T08:46:15;9.40;;;6.60;;
23800;SDS011;12081;48.614;10.226;2022-12-07T08:49:09;11.23;;;6.23;;
23800;SDS011;12081;48.614;10.226;2022-12-07T08:52:04;9.80;;;6.83;;
23800;SDS011;12081;48.614;10.226;2022-12-07T08:54:49;8.07;;;6.17;;
23800;SDS011;12081;48.614;10.226;2022-12-07T08:57:33;9.37;;;6.13;;
23800;SDS011;12081;48.614;10.226;2022-12-07T09:00:18;7.87;;;5.60;;
23800;SDS011;12081;48.614;10.226;2022-12-07T09:03:03;7.67;;;5.50;;
23800;SDS011;12081;48.614;10.226;2022-12-07T09:05:47;7.50;;;5.77;;
23800;SDS011;12081;48.614;10.226;2022-12-07T09:08:33;7.50;;;5.50;;
23800;SDS011;12081;48.614;10.226;2022-12-07T09:11:22;8.30;;;5.97;;
23800;SDS011;12081;48.614;10.226;2022-12-07T09:14:06;8.73;;;6.20;;
23800;SDS011;12081;48.614;10.226;2022-12-07T09:16:50;8.40;;;5.63;;
23800;SDS011;12081;48.614;10.226;2022-12-07T09:19:34;9.20;;;5.57;;
23800;SDS011;12081;48.614;10.226;2022-12-07T09:22:18;6.97;;;5.20;;
23800;SDS011;12081;48.614;10.226;2022-12-07T09:25:02;6.83;;;5.03;;
23800;SDS011;12081;48.614;10.226;2022-12-07T09:27:47;8.00;;;5.03;;
23800;SDS011;12081;48.614;10.226;2022-12-07T09:30:31;8.77;;;5.80;;
23800;SDS011;12081;48.614;10.226;2022-12-07T09:33:15;8.70;;;5.57;;
23800;SDS011;12081;48.614;10.226;2022-12-07T09:35:59;7.30;;;4.60;;
23800;SDS011;12081;48.614;10.226;2022-12-07T09:38:44;4.67;;;4.07;;
23800;SDS011;12081;48.614;10.226;2022-12-07T09:41:28;6.17;;;4.87;;
23800;SDS011;12081;48.614;10.226;2022-12-07T09:44:18;6.80;;;4.33;;
23800;SDS011;12081;48.614;10.226;2022-12-07T09:47:08;6.37;;;4.77;;
23800;SDS011;12081;48.614;10.226;2022-12-07T09:50:00;8.47;;;4.77;;
23800;SDS011;12081;48.614;10.226;2022-12-07T09:52:49;6.73;;;4.43;;
23800;SDS011;12081;48.614;10.226;2022-12-07T09:55:34;5.10;;;3.90;;
23800;SDS011;12081;48.614;10.226;2022-12-07T09:58:25;5.87;;;3.97;;
23800;SDS011;12081;48.614;10.226;2022-12-07T10:01:15;4.67;;;3.50;;
23800;SDS011;12081;48.614;10.226;2022-12-07T10:04:12;4.97;;;4.00;;
23800;SDS011;12081;48.614;10.226;2022-12-07T10:07:01;6.27;;;4.50;;
23800;SDS011;12081;48.614;10.226;2022-12-07T10:09:45;5.63;;;3.57;;
23800;SDS011;12081;48.614;10.226;2022-12-07T10:12:29;5.90;;;3.93;;
23800;SDS011;12081;48.614;10.226;2022-12-07T10:15:13;5.50;;;4.00;;
23800;SDS011;12081;48.614;10.226;2022-12-07T10:17:58;5.63;;;4.70;;
23800;SDS011;12081;48.614;10.226;2022-12-07T10:20:46;6.03;;;4.27;;
23800;SDS011;12081;48.614;10.226;2022-12-07T10:23:31;6.67;;;4.40;;
23800;SDS011;12081;48.614;10.226;2022-12-07T10:26:20;5.80;;;4.43;;
23800;SDS011;12081;48.614;10.226;2022-12-07T10:29:16;6.43;;;4.57;;
23800;SDS011;12081;48.614;10.226;2022-12-07T10:38:07;7.90;;;3.93;;
23800;SDS011;12081;48.614;10.226;2022-12-07T10:41:07;5.50;;;3.93;;
23800;SDS011;12081;48.614;10.226;2022-12-07T10:43:55;6.37;;;3.93;;
23800;SDS011;12081;48.614;10.226;2022-12-07T10:46:51;6.00;;;3.77;;
23800;SDS011;12081;48.614;10.226;2022-12-07T10:49:49;4.37;;;3.20;;
23800;SDS011;12081;48.614;10.226;2022-12-07T10:56:11;6.77;;;4.00;;
23800;SDS011;12081;48.614;10.226;2022-12-07T11:05:59;4.13;;;3.53;;
23800;SDS011;12081;48.614;10.226;2022-12-07T11:09:14;5.97;;;3.60;;
23800;SDS011;12081;48.614;10.226;2022-12-07T11:15:04;5.20;;;3.30;;
23800;SDS011;12081;48.614;10.226;2022-12-07T11:18:35;5.80;;;3.73;;
23800;SDS011;12081;48.614;10.226;2022-12-07T11:21:45;5.27;;;3.90;;
23800;SDS011;12081;48.614;10.226;2022-12-07T11:24:57;5.27;;;4.00;;
23800;SDS011;12081;48.614;10.226;2022-12-07T11:27:50;7.43;;;3.57;;
23800;SDS011;12081;48.614;10.226;2022-12-07T11:33:53;4.37;;;2.90;;
23800;SDS011;12081;48.614;10.226;2022-12-07T11:37:03;5.03;;;3.57;;
23800;SDS011;12081;48.614;10.226;2022-12-07T11:39:58;3.60;;;3.07;;
23800;SDS011;12081;48.614;10.226;2022-12-07T11:42:55;4.93;;;3.53;;
23800;SDS011;12081;48.614;10.226;2022-12-07T11:45:47;5.40;;;3.17;;
23800;SDS011;12081;48.614;10.226;2022-12-07T11:51:48;5.37;;;3.63;;
23800;SDS011;12081;48.614;10.226;2022-12-07T11:54:35;6.20;;;3.50;;
23800;SDS011;12081;48.614;10.226;2022-12-07T11:57:36;6.27;;;4.33;;
23800;SDS011;12081;48.614;10.226;2022-12-07T12:00:29;5.00;;;3.30;;
23800;SDS011;12081;48.614;10.226;2022-12-07T12:03:23;4.83;;;3.23;;
23800;SDS011;12081;48.614;10.226;2022-12-07T12:06:15;4.67;;;3.53;;
23800;SDS011;12081;48.614;10.226;2022-12-07T12:09:13;4.67;;;3.40;;
23800;SDS011;12081;48.614;10.226;2022-12-07T12:18:26;5.83;;;4.07;;
23800;SDS011;12081;48.614;10.226;2022-12-07T12:21:56;6.57;;;4.33;;
23800;SDS011;12081;48.614;10.226;2022-12-07T12:24:54;5.00;;;3.63;;
23800;SDS011;12081;48.614;10.226;2022-12-07T12:27:37;5.10;;;3.80;;
23800;SDS011;12081;48.614;10.226;2022-12-07T12:30:25;5.23;;;3.37;;
23800;SDS011;12081;48.614;10.226;2022-12-07T12:33:17;6.80;;;3.63;;
23800;SDS011;12081;48.614;10.226;2022-12-07T12:36:17;4.63;;;3.63;;
23800;SDS011;12081;48.614;10.226;2022-12-07T12:39:09;4.63;;;3.83;;
23800;SDS011;12081;48.614;10.226;2022-12-07T12:42:02;4.93;;;3.30;;
23800;SDS011;12081;48.614;10.226;2022-12-07T12:45:02;4.37;;;3.10;;
23800;SDS011;12081;48.614;10.226;2022-12-07T13:00:18;4.90;;;3.27;;
23800;SDS011;12081;48.614;10.226;2022-12-07T13:03:21;7.77;;;2.97;;
23800;SDS011;12081;48.614;10.226;2022-12-07T13:06:20;5.00;;;3.43;;
23800;SDS011;12081;48.614;10.226;2022-12-07T13:09:20;5.23;;;3.17;;
23800;SDS011;12081;48.614;10.226;2022-12-07T13:12:14;6.73;;;3.60;;
23800;SDS011;12081;48.614;10.226;2022-12-07T13:14:59;4.37;;;3.20;;
23800;SDS011;12081;48.614;10.226;2022-12-07T13:17:54;5.73;;;3.37;;
23800;SDS011;12081;48.614;10.226;2022-12-07T13:20:42;5.70;;;3.67;;
23800;SDS011;12081;48.614;10.226;2022-12-07T13:23:38;5.30;;;3.30;;
23800;SDS011;12081;48.614;10.226;2022-12-07T13:31:59;4.87;;;3.30;;
23800;SDS011;12081;48.614;10.226;2022-12-07T13:42:34;6.40;;;3.60;;
23800;SDS011;12081;48.614;10.226;2022-12-07T13:45:23;5.77;;;3.47;;
23800;SDS011;12081;48.614;10.226;2022-12-07T13:49:12;5.33;;;4.20;;
23800;SDS011;12081;48.614;10.226;2022-12-07T13:51:44;5.33;;;3.43;;
23800;SDS011;12081;48.614;10.226;2022-12-07T13:54:30;5.50;;;3.10;;
23800;SDS011;12081;48.614;10.226;2022-12-07T13:57:15;6.20;;;4.10;;
23800;SDS011;12081;48.614;10.226;2022-12-07T14:00:01;6.63;;;4.27;;
23800;SDS011;12081;48.614;10.226;2022-12-07T14:05:43;5.47;;;3.87;;
23800;SDS011;12081;48.614;10.226;2022-12-07T14:08:29;4.60;;;3.93;;
23800;SDS011;12081;48.614;10.226;2022-12-07T14:11:15;6.47;;;4.37;;
23800;SDS011;12081;48.614;10.226;2022-12-07T14:14:02;8.50;;;4.33;;
23800;SDS011;12081;48.614;10.226;2022-12-07T14:16:59;5.87;;;3.73;;
23800;SDS011;12081;48.614;10.226;2022-12-07T14:19:59;7.20;;;4.13;;
23800;SDS011;12081;48.614;10.226;2022-12-07T14:22:53;4.70;;;3.50;;
23800;SDS011;12081;48.614;10.226;2022-12-07T14:25:45;5.13;;;3.30;;
23800;SDS011;12081;48.614;10.226;2022-12-07T14:28:34;6.97;;;3.23;;
23800;SDS011;12081;48.614;10.226;2022-12-07T14:31:21;6.03;;;3.57;;
23800;SDS011;12081;48.614;10.226;2022-12-07T14:34:11;5.90;;;3.90;;
23800;SDS011;12081;48.614;10.226;2022-12-07T14:36:56;7.07;;;4.33;;
23800;SDS011;12081;48.614;10.226;2022-12-07T14:39:40;6.60;;;3.90;;
23800;SDS011;12081;48.614;10.226;2022-12-07T14:42:26;7.83;;;4.13;;
23800;SDS011;12081;48.614;10.226;2022-12-07T14:45:13;9.00;;;4.83;;
23800;SDS011;12081;48.614;10.226;2022-12-07T14:50:50;7.90;;;5.10;;
23800;SDS011;12081;48.614;10.226;2022-12-07T14:53:36;6.10;;;4.93;;
23800;SDS011;12081;48.614;10.226;2022-12-07T14:56:24;6.27;;;4.73;;
23800;SDS011;12081;48.614;10.226;2022-12-07T14:59:09;9.53;;;4.80;;
23800;SDS011;12081;48.614;10.226;2022-12-07T15:01:54;7.13;;;4.97;;
23800;SDS011;12081;48.614;10.226;2022-12-07T15:04:38;6.73;;;5.17;;
23800;SDS011;12081;48.614;10.226;2022-12-07T15:07:23;8.87;;;5.30;;
23800;SDS011;12081;48.614;10.226;2022-12-07T15:10:21;7.10;;;4.50;;
23800;SDS011;12081;48.614;10.226;2022-12-07T15:13:12;6.80;;;4.77;;
23800;SDS011;12081;48.614;10.226;2022-12-07T15:16:17;8.37;;;5.37;;
23800;SDS011;12081;48.614;10.226;2022-12-07T15:19:04;7.50;;;4.60;;
23800;SDS011;12081;48.614;10.226;2022-12-07T15:21:48;10.27;;;4.83;;
23800;SDS011;12081;48.614;10.226;2022-12-07T15:24:33;9.80;;;5.97;;
23800;SDS011;12081;48.614;10.226;2022-12-07T15:27:17;8.63;;;5.67;;
23800;SDS011;12081;48.614;10.226;2022-12-07T15:30:02;9.00;;;6.03;;
23800;SDS011;12081;48.614;10.226;2022-12-07T15:32:50;9.63;;;5.70;;
23800;SDS011;12081;48.614;10.226;2022-12-07T15:35:38;8.63;;;6.10;;
23800;SDS011;12081;48.614;10.226;2022-12-07T15:38:26;8.90;;;5.90;;
23800;SDS011;12081;48.614;10.226;2022-12-07T15:41:12;8.90;;;6.40;;
23800;SDS011;12081;48.614;10.226;2022-12-07T15:43:56;10.70;;;6.70;;
23800;SDS011;12081;48.614;10.226;2022-12-07T15:47:15;11.87;;;6.20;;
23800;SDS011;12081;48.614;10.226;2022-12-07T15:49:59;10.80;;;6.47;;
23800;SDS011;12081;48.614;10.226;2022-12-07T15:52:43;9.57;;;6.77;;
23800;SDS011;12081;48.614;10.226;2022-12-07T15:55:28;10.60;;;6.40;;
23800;SDS011;12081;48.614;10.226;2022-12-07T15:58:12;11.93;;;7.20;;
23800;SDS011;12081;48.614;10.226;2022-12-07T16:00:56;11.20;;;7.13;;
23800;SDS011;12081;48.614;10.226;2022-12-07T16:03:40;10.03;;;6.83;;
23800;SDS011;12081;48.614;10.226;2022-12-07T16:06:25;13.03;;;7.13;;
23800;SDS011;12081;48.614;10.226;2022-12-07T16:09:10;10.30;;;7.90;;
23800;SDS011;12081;48.614;10.226;2022-12-07T16:11:54;11.70;;;7.20;;
23800;SDS011;12081;48.614;10.226;2022-12-07T16:14:42;11.47;;;8.07;;
23800;SDS011;12081;48.614;10.226;2022-12-07T16:17:51;13.37;;;8.13;;
23800;SDS011;12081;48.614;10.226;2022-12-07T16:20:35;13.77;;;7.27;;
23800;SDS011;12081;48.614;10.226;2022-12-07T16:23:19;11.43;;;7.70;;
23800;SDS011;12081;48.614;10.226;2022-12-07T16:26:08;11.27;;;7.03;;
23800;SDS011;12081;48.614;10.226;2022-12-07T16:28:55;12.20;;;8.17;;
23800;SDS011;12081;48.614;10.226;2022-12-07T16:31:39;11.57;;;7.67;;
23800;SDS011;12081;48.614;10.226;2022-12-07T16:34:30;13.20;;;7.83;;
23800;SDS011;12081;48.614;10.226;2022-12-07T16:37:14;10.77;;;7.77;;
23800;SDS011;12081;48.614;10.226;2022-12-07T16:39:58;10.97;;;7.60;;
23800;SDS011;12081;48.614;10.226;2022-12-07T16:42:43;14.63;;;8.10;;
23800;SDS011;12081;48.614;10.226;2022-12-07T16:45:27;11.03;;;8.13;;
23800;SDS011;12081;48.614;10.226;2022-12-07T16:48:11;11.43;;;8.17;;
23800;SDS011;12081;48.614;10.226;2022-12-07T16:50:56;17.93;;;12.27;;
23800;SDS011;12081;48.614;10.226;2022-12-07T16:53:41;14.77;;;10.23;;
23800;SDS011;12081;48.614;10.226;2022-12-07T16:56:25;12.30;;;8.70;;
23800;SDS011;12081;48.614;10.226;2022-12-07T16:59:12;13.07;;;9.27;;
23800;SDS011;12081;48.614;10.226;2022-12-07T17:01:56;13.10;;;8.63;;
23800;SDS011;12081;48.614;10.226;2022-12-07T17:04:41;11.33;;;8.47;;
23800;SDS011;12081;48.614;10.226;2022-12-07T17:07:26;14.07;;;8.83;;
23800;SDS011;12081;48.614;10.226;2022-12-07T17:10:10;12.07;;;8.67;;
23800;SDS011;12081;48.614;10.226;2022-12-07T17:12:54;14.30;;;8.17;;
23800;SDS011;12081;48.614;10.226;2022-12-07T17:15:39;12.53;;;7.77;;
23800;SDS011;12081;48.614;10.226;2022-12-07T17:18:29;15.17;;;9.53;;
23800;SDS011;12081;48.614;10.226;2022-12-07T17:21:15;15.60;;;10.20;;
23800;SDS011;12081;48.614;10.226;2022-12-07T17:24:00;30.60;;;16.50;;
23800;SDS011;12081;48.614;10.226;2022-12-07T17:26:45;33.30;;;21.07;;
23800;SDS011;12081;48.614;10.226;2022-12-07T17:29:30;20.77;;;16.00;;
23800;SDS011;12081;48.614;10.226;2022-12-07T17:32:14;15.87;;;10.67;;
23800;SDS011;12081;48.614;10.226;2022-12-07T17:34:59;14.23;;;9.20;;
23800;SDS011;12081;48.614;10.226;2022-12-07T17:37:44;15.73;;;10.00;;
23800;SDS011;12081;48.614;10.226;2022-12-07T17:40:28;19.43;;;11.77;;
23800;SDS011;12081;48.614;10.226;2022-12-07T17:43:12;16.23;;;9.67;;
23800;SDS011;12081;48.614;10.226;2022-12-07T17:45:56;12.80;;;9.47;;
23800;SDS011;12081;48.614;10.226;2022-12-07T17:48:40;11.80;;;8.77;;
23800;SDS011;12081;48.614;10.226;2022-12-07T17:51:25;13.57;;;9.33;;
23800;SDS011;12081;48.614;10.226;2022-12-07T17:54:28;15.80;;;9.30;;
23800;SDS011;12081;48.614;10.226;2022-12-07T17:57:13;12.87;;;8.83;;
23800;SDS011;12081;48.614;10.226;2022-12-07T17:59:57;11.10;;;7.70;;
23800;SDS011;12081;48.614;10.226;2022-12-07T18:02:41;10.10;;;7.50;;